createdAt,value
2023-03-06T00:01:54.805Z,4.13
2023-03-06T00:04:57.694Z,4.17
2023-03-06T00:08:00.321Z,4.19
2023-03-06T00:11:03.174Z,4.10
2023-03-06T00:14:05.756Z,4.11
2023-03-06T00:17:08.945Z,4.13
2023-03-06T00:20:12.159Z,4.16
2023-03-06T00:23:15.137Z,4.13
2023-03-06T00:26:17.692Z,4.12
2023-03-06T00:29:21.065Z,4.11
2023-03-06T00:32:24.428Z,4.12
2023-03-06T00:35:27.346Z,4.11
2023-03-06T00:38:33.440Z,4.12
2023-03-06T00:41:36.689Z,4.11
2023-03-06T00:44:39.436Z,4.12
2023-03-06T00:47:42.571Z,4.13
2023-03-06T00:50:45.096Z,4.17
2023-03-06T00:53:48.395Z,4.15
2023-03-06T00:56:51.031Z,4.14
2023-03-06T00:59:54.176Z,4.12
2023-03-06T01:02:56.959Z,4.19
2023-03-06T01:06:00.290Z,4.15
2023-03-06T01:09:27.642Z,4.17
2023-03-06T01:12:31.409Z,4.12
2023-03-06T01:15:35.117Z,4.16
2023-03-06T01:18:39.727Z,4.10
2023-03-06T01:21:47.674Z,4.17
2023-03-06T01:24:53.068Z,4.15
2023-03-06T01:27:57.331Z,4.08
2023-03-06T01:31:01.290Z,4.13
2023-03-06T01:34:04.145Z,4.13
2023-03-06T01:37:07.383Z,4.10
2023-03-06T01:40:12.548Z,4.05
2023-03-06T01:43:26.827Z,4.12
2023-03-06T01:46:32.492Z,3.99
2023-03-06T01:49:37.589Z,3.97
2023-03-06T01:52:51.078Z,4.01
2023-03-06T01:55:54.427Z,3.98
2023-03-06T01:58:59.327Z,3.91
2023-03-06T02:02:02.915Z,3.91
2023-03-06T02:05:07.377Z,3.91
2023-03-06T02:08:12.717Z,3.98
2023-03-06T02:11:22.178Z,3.92
2023-03-06T02:14:25.194Z,3.86
2023-03-06T02:17:28.175Z,3.88
2023-03-06T02:20:51.784Z,3.94
2023-03-06T02:24:16.722Z,3.93
2023-03-06T02:27:19.881Z,3.91
2023-03-06T02:30:23.872Z,3.88
2023-03-06T02:33:28.375Z,3.91
2023-03-06T02:36:37.103Z,3.86
2023-03-06T02:39:43.527Z,3.88
2023-03-06T02:42:52.777Z,3.88
2023-03-06T02:45:55.606Z,3.92
2023-03-06T02:48:58.620Z,3.88
2023-03-06T02:52:01.261Z,3.87
2023-03-06T02:55:04.763Z,3.90
2023-03-06T02:58:07.749Z,3.92
2023-03-06T03:01:11.526Z,3.95
2023-03-06T03:04:14.384Z,3.95
2023-03-06T03:07:17.440Z,3.95
2023-03-06T03:10:20.891Z,3.94
2023-03-06T03:13:24.165Z,3.96
2023-03-06T03:16:27.590Z,3.98
2023-03-06T03:19:32.598Z,3.94
2023-03-06T03:22:35.324Z,4.03
2023-03-06T03:25:38.201Z,3.99
2023-03-06T03:28:41.509Z,3.98
2023-03-06T03:31:45.458Z,3.96
2023-03-06T03:34:48.056Z,3.99
2023-03-06T03:37:52.592Z,4.00
2023-03-06T03:40:55.273Z,3.96
2023-03-06T03:43:58.503Z,3.98
2023-03-06T03:47:01.238Z,4.00
2023-03-06T03:50:06.679Z,4.01
2023-03-06T03:53:22.097Z,3.97
2023-03-06T03:56:37.058Z,4.04
2023-03-06T03:59:40.375Z,4.02
2023-03-06T04:02:44.598Z,4.02
2023-03-06T04:05:50.370Z,4.05
2023-03-06T04:08:56.481Z,4.03
2023-03-06T04:12:00.129Z,3.95
2023-03-06T04:15:05.197Z,3.99
2023-03-06T04:18:08.248Z,3.98
2023-03-06T04:21:11.536Z,3.97
2023-03-06T04:24:14.631Z,3.89
2023-03-06T04:27:18.476Z,3.88
2023-03-06T04:30:21.515Z,3.87
2023-03-06T04:33:29.793Z,3.87
2023-03-06T04:36:34.831Z,3.87
2023-03-06T04:39:37.601Z,3.88
2023-03-06T04:42:40.433Z,3.86
2023-03-06T04:45:43.073Z,3.91
2023-03-06T04:48:46.212Z,3.84
2023-03-06T04:51:48.905Z,3.88
2023-03-06T04:54:51.797Z,3.86
2023-03-06T04:57:54.355Z,3.82
2023-03-06T05:00:57.230Z,3.80
2023-03-06T05:03:59.795Z,3.77
2023-03-06T05:07:02.617Z,3.78
2023-03-06T05:10:06.720Z,3.76
2023-03-06T05:13:10.099Z,3.76
2023-03-06T05:16:12.770Z,3.80
2023-03-06T05:19:17.049Z,3.76
2023-03-06T05:22:21.505Z,3.78
2023-03-06T05:25:24.307Z,3.75
2023-03-06T05:28:28.642Z,3.70
2023-03-06T05:31:31.734Z,3.67
2023-03-06T05:34:34.487Z,3.67
2023-03-06T05:37:37.354Z,3.72
2023-03-06T05:40:44.090Z,3.75
2023-03-06T05:43:47.099Z,3.72
2023-03-06T05:46:50.416Z,3.68
2023-03-06T05:49:53.304Z,3.69
2023-03-06T05:52:55.906Z,3.73
2023-03-06T05:56:01.498Z,3.65
2023-03-06T05:59:04.024Z,3.60
2023-03-06T06:02:07.028Z,3.57
2023-03-06T06:05:12.842Z,3.65
2023-03-06T06:08:16.067Z,3.70
2023-03-06T06:11:20.819Z,3.69
2023-03-06T06:14:23.439Z,3.70
2023-03-06T06:17:26.350Z,3.76
2023-03-06T06:20:28.975Z,3.75
2023-03-06T06:23:31.869Z,3.67
2023-03-06T06:26:34.415Z,3.65
2023-03-06T06:29:37.194Z,3.59
2023-03-06T06:32:39.836Z,3.56
2023-03-06T06:35:42.824Z,3.67
2023-03-06T06:38:45.470Z,3.66
2023-03-06T06:42:02.746Z,3.58
2023-03-06T06:45:13.184Z,3.59
2023-03-06T06:48:17.734Z,3.66
2023-03-06T06:51:22.588Z,3.70
2023-03-06T06:54:27.311Z,3.69
2023-03-06T06:57:30.132Z,3.75
2023-03-06T07:00:32.976Z,3.86
2023-03-06T07:03:35.822Z,3.81
2023-03-06T07:06:38.719Z,3.87
2023-03-06T07:09:41.652Z,3.95
2023-03-06T07:12:44.743Z,4.02
2023-03-06T07:15:47.423Z,3.97
2023-03-06T07:18:50.561Z,3.92
2023-03-06T07:21:53.164Z,4.00
2023-03-06T07:24:55.961Z,4.11
2023-03-06T07:27:58.525Z,4.10
2023-03-06T07:31:01.780Z,4.13
2023-03-06T07:34:05.177Z,4.12
2023-03-06T07:37:08.103Z,4.15
2023-03-06T07:40:12.359Z,4.14
2023-03-06T07:43:19.335Z,4.23
2023-03-06T07:46:22.676Z,4.24
2023-03-06T07:49:25.782Z,4.34
2023-03-06T07:52:29.460Z,4.43
2023-03-06T07:55:32.377Z,4.45
2023-03-06T07:58:40.067Z,4.46
2023-03-06T08:01:42.950Z,4.51
2023-03-06T08:04:52.250Z,4.52
2023-03-06T08:07:54.855Z,4.53
2023-03-06T08:10:57.820Z,4.57
2023-03-06T08:14:00.728Z,4.57
2023-03-06T08:17:03.703Z,4.62
2023-03-06T08:20:07.298Z,4.67
2023-03-06T08:23:10.907Z,4.74
2023-03-06T08:26:22.099Z,4.76
2023-03-06T08:29:25.043Z,4.99
2023-03-06T08:32:27.990Z,5.05
2023-03-06T08:35:30.976Z,4.80
2023-03-06T08:38:33.530Z,4.80
2023-03-06T08:41:37.047Z,4.84
2023-03-06T08:44:39.653Z,4.81
2023-03-06T08:47:42.529Z,4.86
2023-03-06T08:50:45.135Z,4.89
2023-03-06T08:53:48.449Z,4.98
2023-03-06T08:56:51.039Z,4.96
2023-03-06T08:59:53.880Z,5.06
2023-03-06T09:02:56.571Z,5.16
2023-03-06T09:05:59.985Z,5.04
2023-03-06T09:55:19.173Z,6.41
2023-03-06T09:58:25.190Z,6.63
2023-03-06T10:01:35.098Z,6.82
2023-03-06T10:04:41.121Z,6.99
2023-03-06T10:07:43.732Z,7.13
2023-03-06T10:11:13.491Z,7.32
2023-03-06T10:14:37.964Z,7.30
2023-03-06T10:17:41.918Z,7.28
2023-03-06T10:21:07.397Z,7.35
2023-03-06T10:24:58.059Z,7.43
2023-03-06T10:28:22.720Z,7.54
2023-03-06T10:31:28.069Z,7.56
2023-03-06T10:34:33.754Z,7.56
2023-03-06T10:37:36.550Z,7.47
2023-03-06T10:41:11.642Z,7.54
2023-03-06T10:44:14.433Z,7.43
2023-03-06T10:47:27.887Z,7.44
2023-03-06T10:50:32.229Z,7.39
2023-03-06T10:53:35.096Z,7.34
2023-03-06T10:56:43.189Z,7.29
2023-03-06T11:00:00.632Z,7.25
2023-03-06T11:03:26.782Z,7.35
2023-03-06T11:06:37.350Z,7.41
2023-03-06T12:30:06.205Z,8.14
2023-03-06T12:33:15.370Z,8.17
2023-03-06T12:36:39.385Z,8.20
2023-03-06T12:39:42.140Z,8.21
2023-03-06T12:43:19.838Z,8.16
2023-03-06T12:46:24.805Z,8.22
2023-03-06T12:49:38.633Z,8.30
2023-03-06T12:52:42.024Z,8.24
2023-03-06T12:55:46.996Z,8.17
2023-03-06T12:59:02.249Z,8.10
2023-03-06T13:02:07.783Z,8.06
2023-03-06T13:05:14.287Z,8.07
2023-03-06T13:08:54.439Z,8.01
2023-03-06T13:11:57.539Z,7.99
2023-03-06T13:15:20.712Z,7.98
2023-03-06T13:18:23.977Z,7.92
2023-03-06T13:21:42.018Z,7.89
2023-03-06T13:24:45.512Z,7.95
2023-03-06T13:27:54.049Z,7.91
2023-03-06T13:30:57.056Z,7.69
2023-03-06T13:34:02.120Z,7.76
2023-03-06T13:37:14.266Z,7.73
2023-03-06T13:40:28.411Z,7.82
2023-03-06T13:43:32.009Z,7.85
2023-03-06T13:46:37.758Z,7.81
2023-03-06T13:49:45.577Z,7.71
2023-03-06T13:52:59.434Z,7.85
2023-03-06T13:56:11.624Z,7.82
2023-03-06T13:59:32.933Z,7.90
2023-03-06T14:02:54.933Z,7.92
2023-03-06T14:05:59.110Z,7.91
2023-03-06T14:09:07.105Z,7.92
2023-03-06T14:12:25.015Z,7.92
2023-03-06T14:15:46.183Z,8.04
2023-03-06T14:18:51.672Z,7.95
2023-03-06T14:21:57.895Z,7.93
2023-03-06T14:25:07.501Z,7.95
2023-03-06T14:28:22.581Z,7.83
2023-03-06T14:31:27.197Z,7.86
2023-03-06T14:34:33.421Z,7.76
2023-03-06T14:37:37.309Z,7.89
2023-03-06T14:40:44.570Z,7.95
2023-03-06T14:43:47.423Z,7.87
2023-03-06T14:46:52.207Z,7.79
2023-03-06T14:50:21.520Z,7.86
2023-03-06T14:53:27.420Z,8.00
2023-03-06T14:56:30.644Z,7.87
2023-03-06T14:59:57.661Z,7.73
2023-03-06T15:03:01.195Z,7.85
2023-03-06T15:06:05.250Z,7.69
2023-03-06T15:09:20.460Z,7.62
2023-03-06T15:12:33.962Z,7.81
2023-03-06T15:15:39.599Z,7.79
2023-03-06T15:19:03.202Z,7.78
2023-03-06T15:22:24.756Z,7.61
2023-03-06T15:25:31.693Z,7.54
2023-03-06T15:28:38.705Z,7.54
2023-03-06T15:31:43.723Z,7.55
2023-03-06T15:34:47.137Z,7.47
2023-03-06T15:37:49.731Z,7.51
2023-03-06T15:41:01.409Z,7.59
2023-03-06T15:44:11.311Z,7.45
2023-03-06T15:47:14.134Z,7.31
2023-03-06T15:50:26.091Z,7.40
2023-03-06T15:53:29.433Z,7.29
2023-03-06T15:56:43.452Z,7.13
2023-03-06T15:59:46.906Z,7.18
2023-03-06T16:02:49.967Z,7.06
2023-03-06T16:05:52.888Z,6.99
2023-03-06T16:08:55.402Z,7.01
2023-03-06T16:11:59.481Z,6.95
2023-03-06T16:15:02.796Z,6.94
2023-03-06T16:18:06.626Z,6.81
2023-03-06T16:21:12.141Z,6.92
2023-03-06T16:24:17.442Z,6.91
2023-03-06T16:27:20.295Z,6.82
2023-03-06T16:30:24.183Z,6.77
2023-03-06T16:33:26.889Z,6.71
2023-03-06T16:36:30.233Z,6.68
2023-03-06T16:39:33.617Z,6.52
2023-03-06T16:42:36.779Z,6.49
2023-03-06T16:45:41.796Z,6.53
2023-03-06T16:48:46.174Z,6.32
2023-03-06T16:51:49.975Z,6.36
2023-03-06T16:54:52.894Z,6.45
2023-03-06T16:57:55.587Z,6.29
2023-03-06T17:00:58.633Z,6.17
2023-03-06T17:04:01.369Z,6.36
2023-03-06T17:07:04.706Z,6.23
2023-03-06T17:10:10.476Z,6.33
2023-03-06T17:13:13.585Z,6.03
2023-03-06T17:16:16.723Z,5.94
2023-03-06T17:19:19.989Z,5.98
2023-03-06T17:22:22.666Z,5.98
2023-03-06T17:25:25.770Z,5.96
2023-03-06T17:28:28.370Z,5.87
2023-03-06T17:31:31.279Z,5.90
2023-03-06T17:34:34.003Z,5.81
2023-03-06T17:37:37.369Z,5.78
2023-03-06T17:40:41.367Z,5.90
2023-03-06T17:43:44.438Z,5.89
2023-03-06T17:46:47.057Z,5.70
2023-03-06T17:49:50.189Z,5.67
2023-03-06T17:52:52.814Z,5.68
2023-03-06T17:55:58.222Z,5.74
2023-03-06T17:59:00.861Z,5.61
2023-03-06T18:02:06.205Z,5.55
2023-03-06T18:05:12.595Z,5.56
2023-03-06T18:08:15.898Z,5.55
2023-03-06T18:11:19.039Z,5.43
2023-03-06T18:14:25.578Z,5.43
2023-03-06T18:17:48.468Z,5.40
2023-03-06T18:20:51.337Z,5.39
2023-03-06T18:23:54.499Z,5.44
2023-03-06T18:26:57.514Z,5.36
2023-03-06T18:30:02.028Z,5.38
2023-03-06T18:33:06.196Z,5.23
2023-03-06T18:36:09.572Z,5.20
2023-03-06T18:39:13.901Z,5.17
2023-03-06T18:42:16.894Z,5.15
2023-03-06T18:45:20.261Z,5.16
2023-03-06T18:48:25.779Z,5.13
2023-03-06T18:51:29.072Z,5.03
2023-03-06T18:54:32.250Z,5.03
2023-03-06T18:57:35.193Z,5.00
2023-03-06T19:00:38.438Z,4.95
2023-03-06T19:03:41.297Z,4.86
2023-03-06T19:06:44.912Z,5.01
2023-03-06T19:09:48.581Z,4.94
2023-03-06T19:12:51.794Z,5.04
2023-03-06T19:15:57.022Z,4.99
2023-03-06T19:19:00.289Z,4.81
2023-03-06T19:22:03.376Z,4.95
2023-03-06T19:25:08.366Z,5.07
2023-03-06T19:28:11.336Z,5.03
2023-03-06T19:31:20.570Z,5.25
2023-03-06T19:34:23.457Z,5.06
2023-03-06T19:37:26.508Z,5.00
2023-03-06T19:40:31.953Z,5.00
2023-03-06T19:43:36.081Z,4.99
2023-03-06T19:46:40.719Z,4.91
2023-03-06T19:49:43.601Z,4.94
2023-03-06T19:52:50.356Z,4.95
2023-03-06T19:56:02.600Z,4.87
2023-03-06T19:59:05.520Z,4.82
2023-03-06T20:02:13.080Z,4.79
2023-03-06T20:05:17.232Z,4.88
2023-03-06T20:08:20.133Z,4.82
2023-03-06T20:11:26.131Z,4.92
2023-03-06T20:14:29.358Z,4.94
2023-03-06T20:17:34.135Z,4.78
2023-03-06T20:20:39.228Z,4.73
2023-03-06T20:23:43.041Z,4.66
2023-03-06T20:26:46.989Z,4.61
2023-03-06T20:29:50.490Z,4.46
2023-03-06T20:32:54.459Z,4.41
2023-03-06T20:35:57.643Z,4.44
2023-03-06T20:39:02.577Z,4.43
2023-03-06T20:42:06.066Z,4.42
2023-03-06T20:45:11.299Z,4.43
2023-03-06T20:48:14.237Z,4.41
2023-03-06T20:51:28.641Z,4.38
2023-03-06T20:54:31.867Z,4.27
2023-03-06T20:57:34.888Z,4.28
2023-03-06T21:00:38.319Z,4.24
2023-03-06T21:03:41.122Z,4.23
2023-03-06T21:06:46.675Z,4.23
2023-03-06T21:09:49.833Z,4.15
2023-03-06T21:12:52.902Z,4.28
2023-03-06T21:15:55.788Z,4.13
2023-03-06T21:19:00.528Z,4.16
2023-03-06T21:22:03.676Z,4.33
2023-03-06T21:25:07.356Z,4.21
2023-03-06T21:28:10.329Z,4.29
2023-03-06T21:31:15.206Z,4.25
2023-03-06T21:34:17.734Z,4.34
2023-03-06T21:37:20.593Z,4.18
2023-03-06T21:40:23.216Z,4.15
2023-03-06T21:43:26.113Z,4.26
2023-03-06T21:46:29.757Z,4.30
2023-03-06T21:49:32.768Z,4.21
2023-03-06T21:52:37.596Z,4.28
2023-03-06T21:55:41.043Z,4.24
2023-03-06T21:58:44.439Z,4.07
2023-03-06T22:01:47.642Z,4.13
2023-03-06T22:04:52.639Z,4.15
2023-03-06T22:07:59.252Z,4.10
2023-03-06T22:11:13.592Z,4.11
2023-03-06T22:14:16.120Z,4.09
2023-03-06T22:17:18.983Z,4.16
2023-03-06T22:20:23.127Z,4.04
2023-03-06T22:23:27.085Z,4.05
2023-03-06T22:26:30.249Z,4.06
2023-03-06T22:29:33.457Z,3.98
2023-03-06T22:32:36.522Z,4.02
2023-03-06T22:35:39.638Z,4.03
2023-03-06T22:38:43.932Z,4.01
2023-03-06T22:41:47.185Z,3.95
2023-03-06T22:44:50.020Z,3.94
2023-03-06T22:47:57.079Z,3.93
2023-03-06T22:51:09.507Z,3.97
2023-03-06T22:54:13.636Z,3.93
2023-03-06T22:57:16.432Z,3.92
2023-03-06T23:00:20.124Z,3.93
2023-03-06T23:03:22.827Z,3.97
2023-03-06T23:06:37.469Z,3.92
2023-03-06T23:09:40.790Z,3.97
2023-03-06T23:13:02.013Z,3.97
2023-03-06T23:16:23.727Z,3.95
2023-03-06T23:19:44.750Z,4.05
2023-03-06T23:23:06.000Z,3.90
2023-03-06T23:26:19.662Z,3.96
2023-03-06T23:29:23.694Z,3.96
2023-03-06T23:32:50.034Z,3.91
2023-03-06T23:35:53.966Z,3.97
2023-03-06T23:38:57.130Z,3.83
2023-03-06T23:42:01.521Z,3.75
2023-03-06T23:45:04.498Z,3.66
2023-03-06T23:48:08.031Z,3.60
2023-03-06T23:51:18.995Z,3.61
2023-03-06T23:54:22.023Z,3.55
2023-03-06T23:57:25.048Z,3.55
